sensor_id;sensor_type;location;lat;lon;timestamp;P1;durP1;ratioP1;P2;durP2;ratioP2
16667;SDS011;8447;52.630;4.734;2022-07-06T00:02:16;0.67;;;0.23;;
16667;SDS011;8447;52.630;4.734;2022-07-06T00:04:43;2.67;;;0.40;;
16667;SDS011;8447;52.630;4.734;2022-07-06T00:07:09;0.57;;;0.40;;
16667;SDS011;8447;52.630;4.734;2022-07-06T00:09:35;1.93;;;0.73;;
16667;SDS011;8447;52.630;4.734;2022-07-06T00:12:02;1.70;;;0.60;;
16667;SDS011;8447;52.630;4.734;2022-07-06T00:14:30;0.90;;;0.50;;
16667;SDS011;8447;52.630;4.734;2022-07-06T00:16:56;1.53;;;0.47;;
16667;SDS011;8447;52.630;4.734;2022-07-06T00:19:23;1.63;;;0.43;;
16667;SDS011;8447;52.630;4.734;2022-07-06T00:21:49;1.17;;;0.27;;
16667;SDS011;8447;52.630;4.734;2022-07-06T00:24:15;0.40;;;0.37;;
16667;SDS011;8447;52.630;4.734;2022-07-06T00:26:43;1.40;;;0.30;;
16667;SDS011;8447;52.630;4.734;2022-07-06T00:29:09;1.90;;;0.50;;
16667;SDS011;8447;52.630;4.734;2022-07-06T00:31:37;1.40;;;0.40;;
16667;SDS011;8447;52.630;4.734;2022-07-06T00:34:03;1.93;;;0.40;;
16667;SDS011;8447;52.630;4.734;2022-07-06T00:36:29;2.73;;;0.70;;
16667;SDS011;8447;52.630;4.734;2022-07-06T00:38:56;0.73;;;0.30;;
16667;SDS011;8447;52.630;4.734;2022-07-06T00:41:22;1.87;;;0.30;;
16667;SDS011;8447;52.630;4.734;2022-07-06T00:43:49;2.13;;;0.47;;
16667;SDS011;8447;52.630;4.734;2022-07-06T00:46:16;3.03;;;0.60;;
16667;SDS011;8447;52.630;4.734;2022-07-06T00:48:43;3.60;;;0.40;;
16667;SDS011;8447;52.630;4.734;2022-07-06T00:51:10;1.40;;;0.70;;
16667;SDS011;8447;52.630;4.734;2022-07-06T00:53:36;0.20;;;0.20;;
16667;SDS011;8447;52.630;4.734;2022-07-06T00:56:03;2.73;;;0.47;;
16667;SDS011;8447;52.630;4.734;2022-07-06T00:58:29;0.90;;;0.33;;
16667;SDS011;8447;52.630;4.734;2022-07-06T01:00:56;0.73;;;0.40;;
16667;SDS011;8447;52.630;4.734;2022-07-06T01:03:22;1.20;;;0.30;;
16667;SDS011;8447;52.630;4.734;2022-07-06T01:05:51;1.33;;;0.30;;
16667;SDS011;8447;52.630;4.734;2022-07-06T01:08:17;3.03;;;0.43;;
16667;SDS011;8447;52.630;4.734;2022-07-06T01:10:44;2.30;;;0.37;;
16667;SDS011;8447;52.630;4.734;2022-07-06T01:13:10;1.43;;;0.50;;
16667;SDS011;8447;52.630;4.734;2022-07-06T01:15:36;1.70;;;0.43;;
16667;SDS011;8447;52.630;4.734;2022-07-06T01:18:03;0.60;;;0.30;;
16667;SDS011;8447;52.630;4.734;2022-07-06T01:20:31;0.73;;;0.37;;
16667;SDS011;8447;52.630;4.734;2022-07-06T01:22:58;4.80;;;0.60;;
16667;SDS011;8447;52.630;4.734;2022-07-06T01:25:25;1.60;;;0.40;;
16667;SDS011;8447;52.630;4.734;2022-07-06T01:27:51;1.17;;;0.30;;
16667;SDS011;8447;52.630;4.734;2022-07-06T01:30:18;0.20;;;0.10;;
16667;SDS011;8447;52.630;4.734;2022-07-06T01:32:45;2.97;;;0.60;;
16667;SDS011;8447;52.630;4.734;2022-07-06T01:35:12;1.40;;;0.30;;
16667;SDS011;8447;52.630;4.734;2022-07-06T01:37:40;5.70;;;0.63;;
16667;SDS011;8447;52.630;4.734;2022-07-06T01:40:07;1.23;;;0.60;;
16667;SDS011;8447;52.630;4.734;2022-07-06T01:42:35;1.07;;;0.30;;
16667;SDS011;8447;52.630;4.734;2022-07-06T01:45:01;2.70;;;0.40;;
16667;SDS011;8447;52.630;4.734;2022-07-06T01:47:28;2.93;;;0.50;;
16667;SDS011;8447;52.630;4.734;2022-07-06T01:49:55;2.43;;;0.50;;
16667;SDS011;8447;52.630;4.734;2022-07-06T01:52:23;0.40;;;0.30;;
16667;SDS011;8447;52.630;4.734;2022-07-06T01:54:51;2.90;;;0.43;;
16667;SDS011;8447;52.630;4.734;2022-07-06T01:57:17;1.97;;;0.53;;
16667;SDS011;8447;52.630;4.734;2022-07-06T01:59:44;2.03;;;0.60;;
16667;SDS011;8447;52.630;4.734;2022-07-06T02:02:10;0.77;;;0.40;;
16667;SDS011;8447;52.630;4.734;2022-07-06T02:04:36;1.87;;;0.60;;
16667;SDS011;8447;52.630;4.734;2022-07-06T02:07:03;3.63;;;0.50;;
16667;SDS011;8447;52.630;4.734;2022-07-06T02:09:29;3.20;;;0.80;;
16667;SDS011;8447;52.630;4.734;2022-07-06T02:11:57;0.93;;;0.30;;
16667;SDS011;8447;52.630;4.734;2022-07-06T02:14:23;0.87;;;0.40;;
16667;SDS011;8447;52.630;4.734;2022-07-06T02:16:49;2.07;;;0.43;;
16667;SDS011;8447;52.630;4.734;2022-07-06T02:19:16;1.43;;;0.40;;
16667;SDS011;8447;52.630;4.734;2022-07-06T02:21:42;2.33;;;0.77;;
16667;SDS011;8447;52.630;4.734;2022-07-06T02:24:08;1.70;;;0.30;;
16667;SDS011;8447;52.630;4.734;2022-07-06T02:26:35;1.70;;;0.40;;
16667;SDS011;8447;52.630;4.734;2022-07-06T02:29:02;1.70;;;0.30;;
16667;SDS011;8447;52.630;4.734;2022-07-06T02:31:29;2.83;;;0.30;;
16667;SDS011;8447;52.630;4.734;2022-07-06T02:33:55;3.03;;;0.57;;
16667;SDS011;8447;52.630;4.734;2022-07-06T02:36:21;0.97;;;0.47;;
16667;SDS011;8447;52.630;4.734;2022-07-06T02:38:48;1.03;;;0.40;;
16667;SDS011;8447;52.630;4.734;2022-07-06T02:41:14;2.10;;;0.30;;
16667;SDS011;8447;52.630;4.734;2022-07-06T02:43:40;2.03;;;0.50;;
16667;SDS011;8447;52.630;4.734;2022-07-06T02:46:08;2.97;;;0.33;;
16667;SDS011;8447;52.630;4.734;2022-07-06T02:48:34;2.67;;;0.50;;
16667;SDS011;8447;52.630;4.734;2022-07-06T02:51:01;1.80;;;0.50;;
16667;SDS011;8447;52.630;4.734;2022-07-06T02:53:27;0.77;;;0.40;;
16667;SDS011;8447;52.630;4.734;2022-07-06T02:55:53;1.80;;;0.40;;
16667;SDS011;8447;52.630;4.734;2022-07-06T02:58:20;3.93;;;0.40;;
16667;SDS011;8447;52.630;4.734;2022-07-06T03:00:46;2.10;;;0.70;;
16667;SDS011;8447;52.630;4.734;2022-07-06T03:03:14;4.27;;;0.67;;
16667;SDS011;8447;52.630;4.734;2022-07-06T03:05:40;5.03;;;0.60;;
16667;SDS011;8447;52.630;4.734;2022-07-06T03:08:06;1.37;;;0.30;;
16667;SDS011;8447;52.630;4.734;2022-07-06T03:10:33;3.23;;;0.50;;
16667;SDS011;8447;52.630;4.734;2022-07-06T03:12:59;3.23;;;0.50;;
16667;SDS011;8447;52.630;4.734;2022-07-06T03:15:25;2.57;;;0.40;;
16667;SDS011;8447;52.630;4.734;2022-07-06T03:17:52;2.73;;;0.90;;
16667;SDS011;8447;52.630;4.734;2022-07-06T03:20:19;4.17;;;0.60;;
16667;SDS011;8447;52.630;4.734;2022-07-06T03:22:46;4.00;;;0.40;;
16667;SDS011;8447;52.630;4.734;2022-07-06T03:25:12;2.53;;;0.53;;
16667;SDS011;8447;52.630;4.734;2022-07-06T03:27:38;1.90;;;0.40;;
16667;SDS011;8447;52.630;4.734;2022-07-06T03:30:05;2.10;;;0.60;;
16667;SDS011;8447;52.630;4.734;2022-07-06T03:32:32;3.80;;;0.60;;
16667;SDS011;8447;52.630;4.734;2022-07-06T03:34:58;5.00;;;0.83;;
16667;SDS011;8447;52.630;4.734;2022-07-06T03:37:26;1.77;;;0.50;;
16667;SDS011;8447;52.630;4.734;2022-07-06T03:39:52;4.40;;;0.60;;
16667;SDS011;8447;52.630;4.734;2022-07-06T03:42:18;2.13;;;0.53;;
16667;SDS011;8447;52.630;4.734;2022-07-06T03:44:45;1.53;;;0.40;;
16667;SDS011;8447;52.630;4.734;2022-07-06T03:47:11;1.37;;;0.60;;
16667;SDS011;8447;52.630;4.734;2022-07-06T03:49:37;2.60;;;0.60;;
16667;SDS011;8447;52.630;4.734;2022-07-06T03:52:04;6.27;;;0.57;;
16667;SDS011;8447;52.630;4.734;2022-07-06T03:54:32;3.07;;;0.60;;
16667;SDS011;8447;52.630;4.734;2022-07-06T03:56:58;1.63;;;0.50;;
16667;SDS011;8447;52.630;4.734;2022-07-06T03:59:25;2.97;;;0.50;;
16667;SDS011;8447;52.630;4.734;2022-07-06T04:01:51;2.50;;;0.50;;
16667;SDS011;8447;52.630;4.734;2022-07-06T04:04:18;1.40;;;0.40;;
16667;SDS011;8447;52.630;4.734;2022-07-06T04:06:44;3.10;;;0.43;;
16667;SDS011;8447;52.630;4.734;2022-07-06T04:09:11;4.20;;;0.60;;
16667;SDS011;8447;52.630;4.734;2022-07-06T04:11:38;0.63;;;0.40;;
16667;SDS011;8447;52.630;4.734;2022-07-06T04:14:05;1.77;;;0.30;;
16667;SDS011;8447;52.630;4.734;2022-07-06T04:16:31;2.90;;;0.40;;
16667;SDS011;8447;52.630;4.734;2022-07-06T04:18:57;1.27;;;0.40;;
16667;SDS011;8447;52.630;4.734;2022-07-06T04:21:24;2.67;;;0.57;;
16667;SDS011;8447;52.630;4.734;2022-07-06T04:23:50;4.17;;;0.63;;
16667;SDS011;8447;52.630;4.734;2022-07-06T04:26:16;1.37;;;0.40;;
16667;SDS011;8447;52.630;4.734;2022-07-06T04:28:44;1.40;;;0.40;;
16667;SDS011;8447;52.630;4.734;2022-07-06T04:31:10;1.27;;;0.40;;
16667;SDS011;8447;52.630;4.734;2022-07-06T04:33:40;1.43;;;0.40;;
16667;SDS011;8447;52.630;4.734;2022-07-06T04:36:06;1.23;;;0.50;;
16667;SDS011;8447;52.630;4.734;2022-07-06T04:38:32;2.00;;;0.60;;
16667;SDS011;8447;52.630;4.734;2022-07-06T04:40:59;1.33;;;0.40;;
16667;SDS011;8447;52.630;4.734;2022-07-06T04:43:25;1.73;;;0.47;;
16667;SDS011;8447;52.630;4.734;2022-07-06T04:45:53;2.57;;;0.37;;
16667;SDS011;8447;52.630;4.734;2022-07-06T04:48:19;2.97;;;0.30;;
16667;SDS011;8447;52.630;4.734;2022-07-06T04:50:45;4.50;;;0.50;;
16667;SDS011;8447;52.630;4.734;2022-07-06T04:53:12;1.03;;;0.50;;
16667;SDS011;8447;52.630;4.734;2022-07-06T04:55:38;3.33;;;0.70;;
16667;SDS011;8447;52.630;4.734;2022-07-06T04:58:05;3.03;;;0.43;;
16667;SDS011;8447;52.630;4.734;2022-07-06T05:00:31;1.37;;;0.40;;
16667;SDS011;8447;52.630;4.734;2022-07-06T05:02:59;3.80;;;0.50;;
16667;SDS011;8447;52.630;4.734;2022-07-06T05:05:25;1.67;;;0.60;;
16667;SDS011;8447;52.630;4.734;2022-07-06T05:07:51;1.67;;;0.33;;
16667;SDS011;8447;52.630;4.734;2022-07-06T05:10:18;5.10;;;0.60;;
16667;SDS011;8447;52.630;4.734;2022-07-06T05:12:44;2.07;;;0.57;;
16667;SDS011;8447;52.630;4.734;2022-07-06T05:15:10;1.40;;;0.47;;
16667;SDS011;8447;52.630;4.734;2022-07-06T05:17:37;0.67;;;0.30;;
16667;SDS011;8447;52.630;4.734;2022-07-06T05:20:05;1.07;;;0.50;;
16667;SDS011;8447;52.630;4.734;2022-07-06T05:22:32;3.50;;;0.57;;
16667;SDS011;8447;52.630;4.734;2022-07-06T05:24:58;2.37;;;0.50;;
16667;SDS011;8447;52.630;4.734;2022-07-06T05:27:25;2.10;;;0.40;;
16667;SDS011;8447;52.630;4.734;2022-07-06T05:29:51;1.33;;;0.30;;
16667;SDS011;8447;52.630;4.734;2022-07-06T05:32:17;0.97;;;0.57;;
16667;SDS011;8447;52.630;4.734;2022-07-06T05:34:44;2.60;;;0.47;;
16667;SDS011;8447;52.630;4.734;2022-07-06T05:37:11;1.47;;;0.57;;
16667;SDS011;8447;52.630;4.734;2022-07-06T05:39:38;1.10;;;0.30;;
16667;SDS011;8447;52.630;4.734;2022-07-06T05:42:04;3.60;;;0.60;;
16667;SDS011;8447;52.630;4.734;2022-07-06T05:44:31;4.30;;;0.70;;
16667;SDS011;8447;52.630;4.734;2022-07-06T05:46:58;0.73;;;0.30;;
16667;SDS011;8447;52.630;4.734;2022-07-06T05:49:38;4.23;;;0.40;;
16667;SDS011;8447;52.630;4.734;2022-07-06T05:52:23;1.67;;;0.57;;
16667;SDS011;8447;52.630;4.734;2022-07-06T05:54:50;3.00;;;0.73;;
16667;SDS011;8447;52.630;4.734;2022-07-06T05:57:16;1.93;;;0.40;;
16667;SDS011;8447;52.630;4.734;2022-07-06T05:59:43;2.00;;;0.33;;
16667;SDS011;8447;52.630;4.734;2022-07-06T06:02:09;2.73;;;0.40;;
16667;SDS011;8447;52.630;4.734;2022-07-06T06:04:36;4.20;;;0.47;;
16667;SDS011;8447;52.630;4.734;2022-07-06T06:07:03;1.93;;;0.30;;
16667;SDS011;8447;52.630;4.734;2022-07-06T06:09:31;1.83;;;0.20;;
16667;SDS011;8447;52.630;4.734;2022-07-06T06:11:57;5.17;;;0.57;;
16667;SDS011;8447;52.630;4.734;2022-07-06T06:14:23;0.20;;;0.20;;
16667;SDS011;8447;52.630;4.734;2022-07-06T06:16:50;1.03;;;0.30;;
16667;SDS011;8447;52.630;4.734;2022-07-06T06:19:16;3.63;;;0.50;;
16667;SDS011;8447;52.630;4.734;2022-07-06T06:21:42;1.50;;;0.60;;
16667;SDS011;8447;52.630;4.734;2022-07-06T06:24:09;0.77;;;0.30;;
16667;SDS011;8447;52.630;4.734;2022-07-06T06:26:36;0.30;;;0.30;;
16667;SDS011;8447;52.630;4.734;2022-07-06T06:29:03;1.43;;;0.30;;
16667;SDS011;8447;52.630;4.734;2022-07-06T06:31:30;0.37;;;0.30;;
16667;SDS011;8447;52.630;4.734;2022-07-06T06:33:56;3.60;;;0.40;;
16667;SDS011;8447;52.630;4.734;2022-07-06T06:36:22;2.30;;;0.30;;
16667;SDS011;8447;52.630;4.734;2022-07-06T06:38:49;1.33;;;0.23;;
16667;SDS011;8447;52.630;4.734;2022-07-06T06:41:15;3.00;;;0.40;;
16667;SDS011;8447;52.630;4.734;2022-07-06T06:43:43;1.50;;;0.20;;
16667;SDS011;8447;52.630;4.734;2022-07-06T06:46:11;1.90;;;0.40;;
16667;SDS011;8447;52.630;4.734;2022-07-06T06:48:37;1.03;;;0.30;;
16667;SDS011;8447;52.630;4.734;2022-07-06T06:51:03;3.30;;;0.43;;
16667;SDS011;8447;52.630;4.734;2022-07-06T06:53:30;0.50;;;0.30;;
16667;SDS011;8447;52.630;4.734;2022-07-06T06:55:56;0.97;;;0.30;;
16667;SDS011;8447;52.630;4.734;2022-07-06T06:58:22;3.50;;;0.30;;
16667;SDS011;8447;52.630;4.734;2022-07-06T07:00:50;1.03;;;0.23;;
16667;SDS011;8447;52.630;4.734;2022-07-06T07:03:16;0.43;;;0.20;;
16667;SDS011;8447;52.630;4.734;2022-07-06T07:05:43;2.13;;;0.33;;
16667;SDS011;8447;52.630;4.734;2022-07-06T07:08:09;0.73;;;0.30;;
16667;SDS011;8447;52.630;4.734;2022-07-06T07:10:36;0.60;;;0.20;;
16667;SDS011;8447;52.630;4.734;2022-07-06T07:13:02;3.07;;;0.60;;
16667;SDS011;8447;52.630;4.734;2022-07-06T07:15:28;2.07;;;0.47;;
16667;SDS011;8447;52.630;4.734;2022-07-06T07:17:56;1.37;;;0.40;;
16667;SDS011;8447;52.630;4.734;2022-07-06T07:20:22;1.03;;;0.37;;
16667;SDS011;8447;52.630;4.734;2022-07-06T07:22:50;1.90;;;0.40;;
16667;SDS011;8447;52.630;4.734;2022-07-06T07:25:16;0.43;;;0.30;;
16667;SDS011;8447;52.630;4.734;2022-07-06T07:27:43;0.83;;;0.40;;
16667;SDS011;8447;52.630;4.734;2022-07-06T07:30:10;0.73;;;0.30;;
16667;SDS011;8447;52.630;4.734;2022-07-06T07:32:36;2.53;;;0.40;;
16667;SDS011;8447;52.630;4.734;2022-07-06T07:35:07;0.50;;;0.20;;
16667;SDS011;8447;52.630;4.734;2022-07-06T07:37:33;1.13;;;0.40;;
16667;SDS011;8447;52.630;4.734;2022-07-06T07:39:59;0.77;;;0.33;;
16667;SDS011;8447;52.630;4.734;2022-07-06T07:42:26;0.10;;;0.10;;
16667;SDS011;8447;52.630;4.734;2022-07-06T07:44:52;0.57;;;0.20;;
16667;SDS011;8447;52.630;4.734;2022-07-06T07:47:19;1.10;;;0.27;;
16667;SDS011;8447;52.630;4.734;2022-07-06T07:49:45;0.40;;;0.20;;
16667;SDS011;8447;52.630;4.734;2022-07-06T07:52:13;0.83;;;0.20;;
16667;SDS011;8447;52.630;4.734;2022-07-06T07:54:39;0.40;;;0.20;;
16667;SDS011;8447;52.630;4.734;2022-07-06T07:57:06;0.40;;;0.20;;
16667;SDS011;8447;52.630;4.734;2022-07-06T07:59:32;2.43;;;0.23;;
16667;SDS011;8447;52.630;4.734;2022-07-06T08:01:58;1.10;;;0.40;;
16667;SDS011;8447;52.630;4.734;2022-07-06T08:04:25;0.80;;;0.30;;
16667;SDS011;8447;52.630;4.734;2022-07-06T08:06:51;1.37;;;0.30;;
16667;SDS011;8447;52.630;4.734;2022-07-06T08:09:19;0.97;;;0.27;;
16667;SDS011;8447;52.630;4.734;2022-07-06T08:11:45;0.57;;;0.20;;
16667;SDS011;8447;52.630;4.734;2022-07-06T08:14:11;1.33;;;0.30;;
16667;SDS011;8447;52.630;4.734;2022-07-06T08:16:39;0.80;;;0.40;;
16667;SDS011;8447;52.630;4.734;2022-07-06T08:19:05;3.60;;;0.50;;
16667;SDS011;8447;52.630;4.734;2022-07-06T08:21:32;0.20;;;0.20;;
16667;SDS011;8447;52.630;4.734;2022-07-06T08:23:58;1.10;;;0.30;;
16667;SDS011;8447;52.630;4.734;2022-07-06T08:26:27;1.43;;;0.40;;
16667;SDS011;8447;52.630;4.734;2022-07-06T08:28:53;0.87;;;0.37;;
16667;SDS011;8447;52.630;4.734;2022-07-06T08:31:20;0.80;;;0.43;;
16667;SDS011;8447;52.630;4.734;2022-07-06T08:33:46;0.83;;;0.27;;
16667;SDS011;8447;52.630;4.734;2022-07-06T08:36:13;0.33;;;0.20;;
16667;SDS011;8447;52.630;4.734;2022-07-06T08:38:40;1.33;;;0.30;;
16667;SDS011;8447;52.630;4.734;2022-07-06T08:41:06;0.70;;;0.30;;
16667;SDS011;8447;52.630;4.734;2022-07-06T08:43:34;0.93;;;0.10;;
16667;SDS011;8447;52.630;4.734;2022-07-06T08:46:00;1.03;;;0.30;;
16667;SDS011;8447;52.630;4.734;2022-07-06T08:48:27;0.30;;;0.10;;
16667;SDS011;8447;52.630;4.734;2022-07-06T08:50:55;1.33;;;0.40;;
16667;SDS011;8447;52.630;4.734;2022-07-06T08:53:21;0.70;;;0.37;;
16667;SDS011;8447;52.630;4.734;2022-07-06T08:55:48;0.20;;;0.20;;
16667;SDS011;8447;52.630;4.734;2022-07-06T08:58:15;0.97;;;0.37;;
16667;SDS011;8447;52.630;4.734;2022-07-06T09:00:43;1.30;;;0.20;;
16667;SDS011;8447;52.630;4.734;2022-07-06T09:03:10;2.00;;;0.37;;
16667;SDS011;8447;52.630;4.734;2022-07-06T09:05:37;0.43;;;0.30;;
16667;SDS011;8447;52.630;4.734;2022-07-06T09:08:05;0.53;;;0.27;;
16667;SDS011;8447;52.630;4.734;2022-07-06T09:10:32;0.90;;;0.37;;
16667;SDS011;8447;52.630;4.734;2022-07-06T09:13:01;0.87;;;0.20;;
16667;SDS011;8447;52.630;4.734;2022-07-06T09:15:28;1.60;;;0.30;;
16667;SDS011;8447;52.630;4.734;2022-07-06T09:17:56;0.70;;;0.30;;
16667;SDS011;8447;52.630;4.734;2022-07-06T09:20:22;1.53;;;0.40;;
16667;SDS011;8447;52.630;4.734;2022-07-06T09:22:49;0.70;;;0.20;;
16667;SDS011;8447;52.630;4.734;2022-07-06T09:25:15;0.23;;;0.20;;
16667;SDS011;8447;52.630;4.734;2022-07-06T09:27:42;0.27;;;0.20;;
16667;SDS011;8447;52.630;4.734;2022-07-06T09:30:12;0.53;;;0.20;;
16667;SDS011;8447;52.630;4.734;2022-07-06T09:32:39;2.53;;;0.30;;
16667;SDS011;8447;52.630;4.734;2022-07-06T09:35:07;1.67;;;0.30;;
16667;SDS011;8447;52.630;4.734;2022-07-06T09:37:34;1.27;;;0.27;;
16667;SDS011;8447;52.630;4.734;2022-07-06T09:40:00;1.30;;;0.22;;
16667;SDS011;8447;52.630;4.734;2022-07-06T09:42:27;0.73;;;0.28;;
16667;SDS011;8447;52.630;4.734;2022-07-06T09:44:54;0.30;;;0.30;;
16667;SDS011;8447;52.630;4.734;2022-07-06T09:47:20;1.42;;;0.40;;
16667;SDS011;8447;52.630;4.734;2022-07-06T09:49:46;0.50;;;0.20;;
16667;SDS011;8447;52.630;4.734;2022-07-06T09:52:15;0.90;;;0.32;;
16667;SDS011;8447;52.630;4.734;2022-07-06T09:54:42;0.80;;;0.28;;
16667;SDS011;8447;52.630;4.734;2022-07-06T09:57:08;5.95;;;0.68;;
16667;SDS011;8447;52.630;4.734;2022-07-06T09:59:34;0.88;;;0.30;;
16667;SDS011;8447;52.630;4.734;2022-07-06T10:02:02;1.10;;;0.20;;
16667;SDS011;8447;52.630;4.734;2022-07-06T10:04:29;1.77;;;0.30;;
16667;SDS011;8447;52.630;4.734;2022-07-06T10:06:56;1.98;;;0.30;;
16667;SDS011;8447;52.630;4.734;2022-07-06T10:09:25;1.20;;;0.40;;
16667;SDS011;8447;52.630;4.734;2022-07-06T10:11:52;2.72;;;0.40;;
16667;SDS011;8447;52.630;4.734;2022-07-06T10:14:21;0.32;;;0.30;;
16667;SDS011;8447;52.630;4.734;2022-07-06T10:16:48;0.65;;;0.30;;
16667;SDS011;8447;52.630;4.734;2022-07-06T10:19:15;1.63;;;0.32;;
16667;SDS011;8447;52.630;4.734;2022-07-06T10:21:41;0.68;;;0.28;;
16667;SDS011;8447;52.630;4.734;2022-07-06T10:24:08;0.50;;;0.22;;
16667;SDS011;8447;52.630;4.734;2022-07-06T10:26:37;0.95;;;0.30;;
16667;SDS011;8447;52.630;4.734;2022-07-06T10:29:04;0.63;;;0.20;;
16667;SDS011;8447;52.630;4.734;2022-07-06T10:31:32;1.13;;;0.50;;
16667;SDS011;8447;52.630;4.734;2022-07-06T10:33:59;1.15;;;0.20;;
16667;SDS011;8447;52.630;4.734;2022-07-06T10:36:26;3.00;;;0.40;;
16667;SDS011;8447;52.630;4.734;2022-07-06T10:38:53;0.47;;;0.30;;
16667;SDS011;8447;52.630;4.734;2022-07-06T10:41:29;2.78;;;0.43;;
16667;SDS011;8447;52.630;4.734;2022-07-06T10:43:56;0.43;;;0.20;;
16667;SDS011;8447;52.630;4.734;2022-07-06T10:46:23;1.00;;;0.40;;
16667;SDS011;8447;52.630;4.734;2022-07-06T10:48:54;1.23;;;0.40;;
16667;SDS011;8447;52.630;4.734;2022-07-06T10:51:22;0.40;;;0.22;;
16667;SDS011;8447;52.630;4.734;2022-07-06T10:53:55;1.33;;;0.40;;
16667;SDS011;8447;52.630;4.734;2022-07-06T10:56:22;2.42;;;0.20;;
16667;SDS011;8447;52.630;4.734;2022-07-06T10:59:01;1.20;;;0.50;;
16667;SDS011;8447;52.630;4.734;2022-07-06T11:01:27;1.52;;;0.40;;
16667;SDS011;8447;52.630;4.734;2022-07-06T11:04:04;0.45;;;0.17;;
16667;SDS011;8447;52.630;4.734;2022-07-06T11:06:31;0.47;;;0.35;;
16667;SDS011;8447;52.630;4.734;2022-07-06T11:08:59;0.40;;;0.20;;
16667;SDS011;8447;52.630;4.734;2022-07-06T11:11:25;0.65;;;0.30;;
16667;SDS011;8447;52.630;4.734;2022-07-06T11:13:53;1.50;;;0.38;;
16667;SDS011;8447;52.630;4.734;2022-07-06T11:16:22;0.35;;;0.20;;
16667;SDS011;8447;52.630;4.734;2022-07-06T11:18:58;1.23;;;0.20;;
16667;SDS011;8447;52.630;4.734;2022-07-06T11:21:32;0.30;;;0.20;;
16667;SDS011;8447;52.630;4.734;2022-07-06T11:23:58;0.50;;;0.28;;
16667;SDS011;8447;52.630;4.734;2022-07-06T11:26:24;0.50;;;0.30;;
16667;SDS011;8447;52.630;4.734;2022-07-06T11:28:51;1.02;;;0.40;;
16667;SDS011;8447;52.630;4.734;2022-07-06T11:31:17;1.25;;;0.30;;
16667;SDS011;8447;52.630;4.734;2022-07-06T11:33:48;0.95;;;0.30;;
16667;SDS011;8447;52.630;4.734;2022-07-06T11:36:15;0.75;;;0.30;;
16667;SDS011;8447;52.630;4.734;2022-07-06T11:38:42;1.08;;;0.30;;
16667;SDS011;8447;52.630;4.734;2022-07-06T11:41:09;1.55;;;0.28;;
16667;SDS011;8447;52.630;4.734;2022-07-06T11:43:36;0.47;;;0.17;;
16667;SDS011;8447;52.630;4.734;2022-07-06T11:46:07;2.83;;;0.40;;
16667;SDS011;8447;52.630;4.734;2022-07-06T11:48:34;3.53;;;0.98;;
16667;SDS011;8447;52.630;4.734;2022-07-06T11:51:02;0.20;;;0.20;;
16667;SDS011;8447;52.630;4.734;2022-07-06T11:53:29;0.57;;;0.20;;
16667;SDS011;8447;52.630;4.734;2022-07-06T11:55:55;0.68;;;0.35;;
16667;SDS011;8447;52.630;4.734;2022-07-06T11:58:27;0.60;;;0.40;;
16667;SDS011;8447;52.630;4.734;2022-07-06T12:01:05;0.25;;;0.20;;
16667;SDS011;8447;52.630;4.734;2022-07-06T12:03:31;0.40;;;0.15;;
16667;SDS011;8447;52.630;4.734;2022-07-06T12:05:59;1.55;;;0.20;;
16667;SDS011;8447;52.630;4.734;2022-07-06T12:08:27;1.77;;;0.40;;
16667;SDS011;8447;52.630;4.734;2022-07-06T12:10:53;0.90;;;0.50;;
16667;SDS011;8447;52.630;4.734;2022-07-06T12:13:20;1.00;;;0.50;;
16667;SDS011;8447;52.630;4.734;2022-07-06T12:15:47;0.43;;;0.20;;
16667;SDS011;8447;52.630;4.734;2022-07-06T12:18:14;1.23;;;0.50;;
16667;SDS011;8447;52.630;4.734;2022-07-06T12:20:40;1.77;;;0.37;;
16667;SDS011;8447;52.630;4.734;2022-07-06T12:23:07;2.60;;;0.50;;
16667;SDS011;8447;52.630;4.734;2022-07-06T12:25:35;1.17;;;0.30;;
16667;SDS011;8447;52.630;4.734;2022-07-06T12:28:02;0.10;;;0.10;;
16667;SDS011;8447;52.630;4.734;2022-07-06T12:30:28;3.37;;;0.40;;
16667;SDS011;8447;52.630;4.734;2022-07-06T12:33:10;0.23;;;0.23;;
16667;SDS011;8447;52.630;4.734;2022-07-06T12:35:36;0.83;;;0.50;;
16667;SDS011;8447;52.630;4.734;2022-07-06T12:38:03;1.00;;;0.50;;
16667;SDS011;8447;52.630;4.734;2022-07-06T12:40:29;1.43;;;0.40;;
16667;SDS011;8447;52.630;4.734;2022-07-06T12:42:57;3.83;;;0.70;;
16667;SDS011;8447;52.630;4.734;2022-07-06T12:45:25;0.40;;;0.40;;
16667;SDS011;8447;52.630;4.734;2022-07-06T12:47:58;2.37;;;0.50;;
16667;SDS011;8447;52.630;4.734;2022-07-06T12:50:30;2.43;;;0.60;;
16667;SDS011;8447;52.630;4.734;2022-07-06T12:52:57;0.87;;;0.40;;
16667;SDS011;8447;52.630;4.734;2022-07-06T12:55:25;1.80;;;0.50;;
16667;SDS011;8447;52.630;4.734;2022-07-06T12:57:51;3.60;;;0.70;;
16667;SDS011;8447;52.630;4.734;2022-07-06T13:00:19;1.87;;;0.70;;
16667;SDS011;8447;52.630;4.734;2022-07-06T13:02:47;1.10;;;0.40;;
16667;SDS011;8447;52.630;4.734;2022-07-06T13:05:18;1.90;;;0.30;;
16667;SDS011;8447;52.630;4.734;2022-07-06T13:07:52;2.83;;;0.50;;
16667;SDS011;8447;52.630;4.734;2022-07-06T13:10:19;0.83;;;0.57;;
16667;SDS011;8447;52.630;4.734;2022-07-06T13:12:45;1.77;;;0.77;;
16667;SDS011;8447;52.630;4.734;2022-07-06T13:15:12;2.57;;;0.40;;
16667;SDS011;8447;52.630;4.734;2022-07-06T13:17:40;2.23;;;0.63;;
16667;SDS011;8447;52.630;4.734;2022-07-06T13:20:07;3.17;;;0.60;;
16667;SDS011;8447;52.630;4.734;2022-07-06T13:22:34;1.60;;;0.40;;
16667;SDS011;8447;52.630;4.734;2022-07-06T13:25:00;3.87;;;0.83;;
16667;SDS011;8447;52.630;4.734;2022-07-06T13:27:27;2.60;;;0.90;;
16667;SDS011;8447;52.630;4.734;2022-07-06T13:29:53;4.40;;;0.50;;
16667;SDS011;8447;52.630;4.734;2022-07-06T13:32:20;2.87;;;0.80;;
16667;SDS011;8447;52.630;4.734;2022-07-06T13:34:48;4.87;;;0.83;;
16667;SDS011;8447;52.630;4.734;2022-07-06T13:37:14;3.80;;;1.03;;
16667;SDS011;8447;52.630;4.734;2022-07-06T13:39:40;3.27;;;1.00;;
16667;SDS011;8447;52.630;4.734;2022-07-06T13:42:07;4.20;;;0.90;;
16667;SDS011;8447;52.630;4.734;2022-07-06T13:44:34;2.33;;;0.73;;
16667;SDS011;8447;52.630;4.734;2022-07-06T13:47:00;2.00;;;0.90;;
16667;SDS011;8447;52.630;4.734;2022-07-06T13:49:26;3.20;;;1.17;;
16667;SDS011;8447;52.630;4.734;2022-07-06T13:51:54;4.97;;;1.13;;
16667;SDS011;8447;52.630;4.734;2022-07-06T13:54:27;3.23;;;1.27;;
16667;SDS011;8447;52.630;4.734;2022-07-06T13:56:53;2.10;;;0.90;;
16667;SDS011;8447;52.630;4.734;2022-07-06T13:59:19;3.93;;;1.00;;
16667;SDS011;8447;52.630;4.734;2022-07-06T14:01:46;2.60;;;1.10;;
16667;SDS011;8447;52.630;4.734;2022-07-06T14:04:12;2.70;;;1.20;;
16667;SDS011;8447;52.630;4.734;2022-07-06T14:06:39;4.43;;;1.30;;
16667;SDS011;8447;52.630;4.734;2022-07-06T14:09:06;3.13;;;1.17;;
16667;SDS011;8447;52.630;4.734;2022-07-06T14:11:33;4.90;;;1.03;;
16667;SDS011;8447;52.630;4.734;2022-07-06T14:13:59;4.03;;;1.30;;
16667;SDS011;8447;52.630;4.734;2022-07-06T14:16:26;2.57;;;1.23;;
16667;SDS011;8447;52.630;4.734;2022-07-06T14:18:52;4.87;;;1.10;;
16667;SDS011;8447;52.630;4.734;2022-07-06T14:21:18;1.97;;;0.90;;
16667;SDS011;8447;52.630;4.734;2022-07-06T14:23:45;1.83;;;1.00;;
16667;SDS011;8447;52.630;4.734;2022-07-06T14:26:14;2.93;;;1.03;;
16667;SDS011;8447;52.630;4.734;2022-07-06T14:28:41;3.33;;;1.07;;
16667;SDS011;8447;52.630;4.734;2022-07-06T14:31:07;2.47;;;1.00;;
16667;SDS011;8447;52.630;4.734;2022-07-06T14:33:34;4.33;;;1.07;;
16667;SDS011;8447;52.630;4.734;2022-07-06T14:36:00;2.00;;;0.93;;
16667;SDS011;8447;52.630;4.734;2022-07-06T14:38:26;1.83;;;0.90;;
16667;SDS011;8447;52.630;4.734;2022-07-06T14:40:53;6.27;;;1.00;;
16667;SDS011;8447;52.630;4.734;2022-07-06T14:43:21;3.50;;;0.63;;
16667;SDS011;8447;52.630;4.734;2022-07-06T14:45:48;1.27;;;0.60;;
16667;SDS011;8447;52.630;4.734;2022-07-06T14:48:14;4.37;;;0.90;;
16667;SDS011;8447;52.630;4.734;2022-07-06T14:50:41;3.47;;;0.70;;
16667;SDS011;8447;52.630;4.734;2022-07-06T14:53:07;2.70;;;0.63;;
16667;SDS011;8447;52.630;4.734;2022-07-06T14:55:34;2.83;;;0.57;;
16667;SDS011;8447;52.630;4.734;2022-07-06T14:58:00;5.17;;;1.10;;
16667;SDS011;8447;52.630;4.734;2022-07-06T15:00:28;7.07;;;1.03;;